Kiselevsk, Russia
Current Conditions -  °F | °C
As of 5:00 PM on Saturday 20 Dec 2014 (Local Time) from UNEE Reporting Station
Few Clouds Few Clouds  
Wind Chill: -8°   Ceiling: Unl
Heat Index:   Visibility: 4mi
Dew Point:   Wind: 4mph
Humidity: 100%   Direction: 150°SSE
Pressure: 30.45"   Gusts: NA
Location:  53.98°N, 86.67°E
Report Text: UNEE 201000Z 15002MPS 7000 FEW200 M17/M17 Q1031 NOSIG RMKQFE750 23821045
Loading
Personal Weather Stations






























Interactive Weather Map New forecast layout! Learn more

10-Day Weather Forecast

Advertisements
Track Severe Weather on mobile